Αρχική σελίδα
METAR-TAF:

METAR-TAF

Αεροδρόμια :

Berlevåg, Νορβηγία

γεωγραφικό πλάτος: 70-52N, γεωγραφικό μήκος: 029-02E, υψόμετρο: 1 μ

Παρών καιρός

Η αναφορά έγινε 53 λεπτά πριν, στις 01:20 UTC
Άνεμος 9 kt από Δ
Θερμοκρασία 20°C
Υγρασία 46%
Πίεση 1014 hPa

METAR: ENBV 230120Z AUTO 26009KT //// R24///// // NCD 20/08 Q1014

Χρόνος: 04:13 (02:13 UTC)

Πρόγνωση Καιρού

Η αναφορά έγινε 8 ώρες και 25 λεπτά πριν, στις 17:48 UTC
Η πρόγνωση ισχύει από τις 22 στις 17 UTC έως τις 22 στις 23 UTC
Άνεμος 9 kt από ΝA
Ορατότητα 10 χλμ και άνω
Δεν υπάρχουν νέφη με βάση κάτω από τα 1500 μ. και δεν υπάρχουν νέφη σωρειτομελανίτες.
Προσωρινά
από 22 στις 17 UTC έως τις 22 στις 23 UTC
Άνεμος 10 kt από Δ/ΝΔ

TAF: ENBV 221748Z 2217/2223 13009KT CAVOK TEMPO 2217/2223 24010KT

Μετεωρολογικές αναφορές και προγνώσεις για περισσότερα από 4000 αεροδρόμια (δελτία METAR και TAF).

Οι διαθέσιμοι σταθμοί απεικονίζονται στο χάρτη με κίτρινες και κόκκινες κουκκίδες.

Μετακινήστε το ποντίκι πάνω από τις κουκκίδες για να δείτε το όνομα του σταθμού.

Στη συνέχεια, κάντε κλικ για να δείτε τις μετεωρολογικές αναφορές και τις προγνώσεις καιρού.

Για να αλλάξετε το χάρτη: κάντε κλικ στα πράσινα κουμπιά με τον μαύρο σταυρό για να ζουμάρετε, στο πράσινο κουμπί με την παύλα για να αφαιρέσετε το ζουμ ή στα πράσινα βέλη για να αντιπαραβάλλετε χάρτες.


METAR-TAF: